sensor_id;sensor_type;location;lat;lon;timestamp;pressure;altitude;pressure_sealevel;temperature;humidity
15694;BME280;7947;48.834;9.132;2023-02-08T00:00:22;100205.59;;;-0.73;63.35
15694;BME280;7947;48.834;9.132;2023-02-08T00:03:31;100209.47;;;-0.68;62.40
15694;BME280;7947;48.834;9.132;2023-02-08T00:06:37;100198.09;;;-0.68;62.06
15694;BME280;7947;48.834;9.132;2023-02-08T00:09:47;100194.34;;;-0.66;61.35
15694;BME280;7947;48.834;9.132;2023-02-08T00:12:56;100176.25;;;-0.61;60.56
15694;BME280;7947;48.834;9.132;2023-02-08T00:16:03;100181.81;;;-0.64;60.94
15694;BME280;7947;48.834;9.132;2023-02-08T00:19:09;100176.94;;;-0.59;60.46
15694;BME280;7947;48.834;9.132;2023-02-08T00:22:17;100174.59;;;-0.62;61.00
15694;BME280;7947;48.834;9.132;2023-02-08T00:25:25;100168.97;;;-0.67;60.38
15694;BME280;7947;48.834;9.132;2023-02-08T00:28:32;100168.63;;;-0.64;60.18
15694;BME280;7947;48.834;9.132;2023-02-08T00:31:39;100167.16;;;-0.66;60.72
15694;BME280;7947;48.834;9.132;2023-02-08T00:34:46;100164.72;;;-0.60;60.59
15694;BME280;7947;48.834;9.132;2023-02-08T00:37:56;100162.63;;;-0.56;60.34
15694;BME280;7947;48.834;9.132;2023-02-08T00:41:04;100158.72;;;-0.52;60.91
15694;BME280;7947;48.834;9.132;2023-02-08T00:44:10;100163.38;;;-0.64;59.98
15694;BME280;7947;48.834;9.132;2023-02-08T00:47:17;100166.25;;;-0.75;60.51
15694;BME280;7947;48.834;9.132;2023-02-08T00:50:24;100174.16;;;-0.75;60.91
15694;BME280;7947;48.834;9.132;2023-02-08T00:53:35;100167.00;;;-0.65;60.50
15694;BME280;7947;48.834;9.132;2023-02-08T00:56:43;100160.13;;;-0.58;59.80
15694;BME280;7947;48.834;9.132;2023-02-08T00:59:50;100172.59;;;-0.68;58.74
15694;BME280;7947;48.834;9.132;2023-02-08T01:02:56;100180.50;;;-0.85;60.16
15694;BME280;7947;48.834;9.132;2023-02-08T01:06:04;100176.53;;;-0.64;60.83
15694;BME280;7947;48.834;9.132;2023-02-08T01:09:11;100181.06;;;-0.56;61.25
15694;BME280;7947;48.834;9.132;2023-02-08T01:12:23;100174.28;;;-0.59;61.39
15694;BME280;7947;48.834;9.132;2023-02-08T01:15:29;100179.97;;;-0.46;61.15
15694;BME280;7947;48.834;9.132;2023-02-08T01:18:35;100175.47;;;-0.53;60.94
15694;BME280;7947;48.834;9.132;2023-02-08T01:21:45;100172.34;;;-0.57;62.25
15694;BME280;7947;48.834;9.132;2023-02-08T01:24:55;100175.13;;;-0.58;59.82
15694;BME280;7947;48.834;9.132;2023-02-08T01:28:05;100166.84;;;-0.63;59.60
15694;BME280;7947;48.834;9.132;2023-02-08T01:31:18;100169.22;;;-0.78;62.13
15694;BME280;7947;48.834;9.132;2023-02-08T01:34:29;100174.75;;;-0.81;62.22
15694;BME280;7947;48.834;9.132;2023-02-08T01:37:38;100162.38;;;-0.88;62.71
15694;BME280;7947;48.834;9.132;2023-02-08T01:40:44;100160.66;;;-0.98;62.67
15694;BME280;7947;48.834;9.132;2023-02-08T01:44:05;100163.56;;;-1.01;64.03
15694;BME280;7947;48.834;9.132;2023-02-08T01:47:12;100164.13;;;-0.97;64.49
15694;BME280;7947;48.834;9.132;2023-02-08T01:50:20;100149.97;;;-0.96;62.22
15694;BME280;7947;48.834;9.132;2023-02-08T01:53:30;100153.44;;;-1.13;61.29
15694;BME280;7947;48.834;9.132;2023-02-08T01:56:41;100150.19;;;-1.42;61.79
15694;BME280;7947;48.834;9.132;2023-02-08T01:59:55;100149.03;;;-1.57;63.34
15694;BME280;7947;48.834;9.132;2023-02-08T02:03:04;100154.72;;;-1.62;63.73
15694;BME280;7947;48.834;9.132;2023-02-08T02:06:13;100146.22;;;-1.73;64.52
15694;BME280;7947;48.834;9.132;2023-02-08T02:09:27;100145.84;;;-1.78;66.09
15694;BME280;7947;48.834;9.132;2023-02-08T02:12:40;100133.50;;;-1.78;64.74
15694;BME280;7947;48.834;9.132;2023-02-08T02:15:53;100130.13;;;-1.88;65.42
15694;BME280;7947;48.834;9.132;2023-02-08T02:19:02;100128.94;;;-2.03;66.81
15694;BME280;7947;48.834;9.132;2023-02-08T02:22:33;100126.06;;;-2.10;66.99
15694;BME280;7947;48.834;9.132;2023-02-08T02:26:06;100120.91;;;-2.29;66.34
15694;BME280;7947;48.834;9.132;2023-02-08T02:29:44;100122.66;;;-2.20;67.04
15694;BME280;7947;48.834;9.132;2023-02-08T02:36:32;100112.88;;;-2.27;67.23
15694;BME280;7947;48.834;9.132;2023-02-08T02:39:48;100112.22;;;-2.39;67.40
15694;BME280;7947;48.834;9.132;2023-02-08T02:43:05;100117.91;;;-2.43;68.24
15694;BME280;7947;48.834;9.132;2023-02-08T02:46:37;100121.66;;;-2.46;68.42
15694;BME280;7947;48.834;9.132;2023-02-08T02:49:49;100122.06;;;-2.50;68.25
15694;BME280;7947;48.834;9.132;2023-02-08T02:53:00;100121.25;;;-2.51;68.90
15694;BME280;7947;48.834;9.132;2023-02-08T02:56:14;100118.75;;;-2.43;68.96
15694;BME280;7947;48.834;9.132;2023-02-08T02:59:24;100122.22;;;-2.52;68.83
15694;BME280;7947;48.834;9.132;2023-02-08T03:02:31;100120.97;;;-2.48;67.06
15694;BME280;7947;48.834;9.132;2023-02-08T03:05:41;100117.69;;;-2.59;69.24
15694;BME280;7947;48.834;9.132;2023-02-08T03:09:07;100123.75;;;-2.59;68.56
15694;BME280;7947;48.834;9.132;2023-02-08T03:12:29;100120.59;;;-2.62;68.58
15694;BME280;7947;48.834;9.132;2023-02-08T03:15:39;100118.09;;;-2.64;68.31
15694;BME280;7947;48.834;9.132;2023-02-08T03:19:00;100124.47;;;-2.76;69.38
15694;BME280;7947;48.834;9.132;2023-02-08T03:22:16;100128.09;;;-2.77;70.10
15694;BME280;7947;48.834;9.132;2023-02-08T03:25:28;100131.09;;;-2.72;68.88
15694;BME280;7947;48.834;9.132;2023-02-08T03:28:42;100129.03;;;-2.78;68.70
15694;BME280;7947;48.834;9.132;2023-02-08T03:31:56;100128.53;;;-2.91;69.05
15694;BME280;7947;48.834;9.132;2023-02-08T03:35:05;100129.63;;;-2.94;70.02
15694;BME280;7947;48.834;9.132;2023-02-08T03:38:19;100135.28;;;-2.89;70.71
15694;BME280;7947;48.834;9.132;2023-02-08T03:41:30;100130.84;;;-2.88;69.88
15694;BME280;7947;48.834;9.132;2023-02-08T03:44:40;100124.66;;;-2.97;70.55
15694;BME280;7947;48.834;9.132;2023-02-08T03:47:49;100129.22;;;-2.99;69.73
15694;BME280;7947;48.834;9.132;2023-02-08T03:51:00;100129.91;;;-2.97;68.86
15694;BME280;7947;48.834;9.132;2023-02-08T03:54:12;100121.50;;;-3.00;69.18
15694;BME280;7947;48.834;9.132;2023-02-08T03:57:22;100130.03;;;-3.08;68.62
15694;BME280;7947;48.834;9.132;2023-02-08T04:00:36;100125.50;;;-3.15;72.20
15694;BME280;7947;48.834;9.132;2023-02-08T04:03:45;100124.25;;;-3.21;70.33
15694;BME280;7947;48.834;9.132;2023-02-08T04:06:53;100130.75;;;-3.25;71.65
15694;BME280;7947;48.834;9.132;2023-02-08T04:10:01;100130.72;;;-3.15;71.38
15694;BME280;7947;48.834;9.132;2023-02-08T04:13:12;100129.50;;;-3.21;71.49
15694;BME280;7947;48.834;9.132;2023-02-08T04:16:19;100127.31;;;-3.25;71.40
15694;BME280;7947;48.834;9.132;2023-02-08T04:19:26;100117.50;;;-3.23;72.17
15694;BME280;7947;48.834;9.132;2023-02-08T04:22:33;100120.25;;;-3.25;71.09
15694;BME280;7947;48.834;9.132;2023-02-08T04:25:42;100125.22;;;-3.31;71.33
15694;BME280;7947;48.834;9.132;2023-02-08T04:28:49;100122.19;;;-3.27;70.58
15694;BME280;7947;48.834;9.132;2023-02-08T04:32:00;100126.03;;;-3.31;71.88
15694;BME280;7947;48.834;9.132;2023-02-08T04:35:06;100124.81;;;-3.36;72.30
15694;BME280;7947;48.834;9.132;2023-02-08T04:38:12;100120.53;;;-3.37;70.00
15694;BME280;7947;48.834;9.132;2023-02-08T04:41:26;100123.84;;;-3.45;71.93
15694;BME280;7947;48.834;9.132;2023-02-08T04:44:34;100109.50;;;-3.41;72.23
15694;BME280;7947;48.834;9.132;2023-02-08T04:47:45;100109.75;;;-3.44;71.19
15694;BME280;7947;48.834;9.132;2023-02-08T04:50:54;100120.69;;;-3.48;70.92
15694;BME280;7947;48.834;9.132;2023-02-08T04:54:00;100116.09;;;-3.46;70.25
15694;BME280;7947;48.834;9.132;2023-02-08T04:57:15;100106.19;;;-3.43;70.80
15694;BME280;7947;48.834;9.132;2023-02-08T05:00:25;100095.13;;;-3.46;71.33
15694;BME280;7947;48.834;9.132;2023-02-08T05:03:32;100104.91;;;-3.58;72.23
15694;BME280;7947;48.834;9.132;2023-02-08T05:06:38;100096.25;;;-3.58;72.34
15694;BME280;7947;48.834;9.132;2023-02-08T05:09:44;100100.78;;;-3.60;72.16
15694;BME280;7947;48.834;9.132;2023-02-08T05:12:57;100095.41;;;-3.59;72.09
15694;BME280;7947;48.834;9.132;2023-02-08T05:16:06;100091.69;;;-3.56;71.88
15694;BME280;7947;48.834;9.132;2023-02-08T05:19:12;100091.78;;;-3.68;71.94
15694;BME280;7947;48.834;9.132;2023-02-08T05:22:19;100103.41;;;-3.70;73.81
15694;BME280;7947;48.834;9.132;2023-02-08T05:25:27;100096.34;;;-3.70;71.99
15694;BME280;7947;48.834;9.132;2023-02-08T05:28:36;100095.66;;;-3.72;72.57
15694;BME280;7947;48.834;9.132;2023-02-08T05:31:43;100092.91;;;-3.70;72.24
15694;BME280;7947;48.834;9.132;2023-02-08T05:34:52;100102.16;;;-3.66;71.65
15694;BME280;7947;48.834;9.132;2023-02-08T05:38:00;100102.28;;;-3.68;71.58
15694;BME280;7947;48.834;9.132;2023-02-08T05:41:14;100103.66;;;-3.73;72.65
15694;BME280;7947;48.834;9.132;2023-02-08T05:44:26;100101.56;;;-3.79;72.33
15694;BME280;7947;48.834;9.132;2023-02-08T05:47:32;100106.41;;;-3.84;73.52
15694;BME280;7947;48.834;9.132;2023-02-08T05:50:39;100101.16;;;-3.84;72.34
15694;BME280;7947;48.834;9.132;2023-02-08T05:53:49;100103.09;;;-3.77;72.45
15694;BME280;7947;48.834;9.132;2023-02-08T05:57:00;100106.13;;;-3.81;71.51
15694;BME280;7947;48.834;9.132;2023-02-08T06:00:13;100111.81;;;-3.76;73.05
15694;BME280;7947;48.834;9.132;2023-02-08T06:03:48;100111.66;;;-3.75;73.55
15694;BME280;7947;48.834;9.132;2023-02-08T06:07:30;100108.91;;;-3.73;72.19
15694;BME280;7947;48.834;9.132;2023-02-08T06:11:08;100109.19;;;-3.76;71.11
15694;BME280;7947;48.834;9.132;2023-02-08T06:14:51;100109.94;;;-3.95;71.11
15694;BME280;7947;48.834;9.132;2023-02-08T06:40:25;100110.59;;;-4.12;72.99
15694;BME280;7947;48.834;9.132;2023-02-08T06:43:47;100123.31;;;-4.07;73.14
15694;BME280;7947;48.834;9.132;2023-02-08T06:47:37;100122.22;;;-4.05;73.09
15694;BME280;7947;48.834;9.132;2023-02-08T06:51:18;100124.94;;;-4.06;72.97
15694;BME280;7947;48.834;9.132;2023-02-08T06:55:06;100123.78;;;-4.23;72.35
15694;BME280;7947;48.834;9.132;2023-02-08T06:58:43;100118.63;;;-4.04;73.11
15694;BME280;7947;48.834;9.132;2023-02-08T07:02:20;100128.44;;;-3.96;73.19
15694;BME280;7947;48.834;9.132;2023-02-08T07:05:58;100125.97;;;-3.88;74.38
15694;BME280;7947;48.834;9.132;2023-02-08T07:09:18;100135.53;;;-3.78;75.58
15694;BME280;7947;48.834;9.132;2023-02-08T07:12:55;100144.50;;;-3.61;75.02
15694;BME280;7947;48.834;9.132;2023-02-08T07:16:32;100137.06;;;-3.46;74.84
15694;BME280;7947;48.834;9.132;2023-02-08T07:19:48;100140.13;;;-3.32;73.36
15694;BME280;7947;48.834;9.132;2023-02-08T07:23:41;100140.28;;;-3.33;75.09
15694;BME280;7947;48.834;9.132;2023-02-08T07:30:56;100145.22;;;-3.11;75.39
15694;BME280;7947;48.834;9.132;2023-02-08T07:34:21;100145.66;;;-2.97;75.44
15694;BME280;7947;48.834;9.132;2023-02-08T07:37:48;100143.03;;;-2.97;74.39
15694;BME280;7947;48.834;9.132;2023-02-08T07:40:50;100143.72;;;-2.85;75.89
15694;BME280;7947;48.834;9.132;2023-02-08T07:43:53;100134.28;;;-2.78;76.46
15694;BME280;7947;48.834;9.132;2023-02-08T07:46:57;100137.34;;;-2.73;75.86
15694;BME280;7947;48.834;9.132;2023-02-08T07:50:02;100131.34;;;-2.56;74.79
15694;BME280;7947;48.834;9.132;2023-02-08T07:53:05;100134.22;;;-2.49;73.59
15694;BME280;7947;48.834;9.132;2023-02-08T07:56:08;100133.25;;;-2.39;74.24
15694;BME280;7947;48.834;9.132;2023-02-08T07:59:11;100134.72;;;-2.27;74.18
15694;BME280;7947;48.834;9.132;2023-02-08T08:02:16;100128.28;;;-2.15;72.34
15694;BME280;7947;48.834;9.132;2023-02-08T08:05:19;100124.97;;;-2.17;72.97
15694;BME280;7947;48.834;9.132;2023-02-08T08:08:22;100132.28;;;-2.11;71.05
15694;BME280;7947;48.834;9.132;2023-02-08T08:11:24;100134.66;;;-2.08;70.78
15694;BME280;7947;48.834;9.132;2023-02-08T08:14:27;100133.19;;;-1.93;69.74
15694;BME280;7947;48.834;9.132;2023-02-08T08:17:31;100127.94;;;-1.93;71.44
15694;BME280;7947;48.834;9.132;2023-02-08T08:20:34;100129.91;;;-1.77;72.06
15694;BME280;7947;48.834;9.132;2023-02-08T08:23:37;100126.53;;;-1.69;69.68
15694;BME280;7947;48.834;9.132;2023-02-08T08:26:39;100121.91;;;-1.58;68.79
15694;BME280;7947;48.834;9.132;2023-02-08T08:29:42;100132.59;;;-1.42;69.44
15694;BME280;7947;48.834;9.132;2023-02-08T08:32:46;100132.28;;;-1.39;68.49
15694;BME280;7947;48.834;9.132;2023-02-08T08:35:49;100131.16;;;-1.36;66.84
15694;BME280;7947;48.834;9.132;2023-02-08T08:38:52;100134.56;;;-1.09;66.64
15694;BME280;7947;48.834;9.132;2023-02-08T08:41:56;100129.50;;;-1.02;66.19
15694;BME280;7947;48.834;9.132;2023-02-08T08:44:59;100119.28;;;-0.87;64.73
15694;BME280;7947;48.834;9.132;2023-02-08T08:48:03;100117.38;;;-0.77;62.87
15694;BME280;7947;48.834;9.132;2023-02-08T08:51:07;100110.75;;;-0.56;62.66
15694;BME280;7947;48.834;9.132;2023-02-08T08:54:09;100105.91;;;-0.43;60.58
15694;BME280;7947;48.834;9.132;2023-02-08T08:57:12;100118.13;;;-0.34;61.34
15694;BME280;7947;48.834;9.132;2023-02-08T09:00:15;100107.66;;;-0.51;54.98
15694;BME280;7947;48.834;9.132;2023-02-08T09:03:19;100104.34;;;-0.53;57.47
15694;BME280;7947;48.834;9.132;2023-02-08T09:06:22;100104.34;;;-0.53;55.92
15694;BME280;7947;48.834;9.132;2023-02-08T09:09:24;100103.72;;;-0.47;57.82
15694;BME280;7947;48.834;9.132;2023-02-08T09:12:27;100099.72;;;-0.26;57.70
15694;BME280;7947;48.834;9.132;2023-02-08T09:15:30;100098.28;;;-0.20;57.50
15694;BME280;7947;48.834;9.132;2023-02-08T09:18:34;100111.22;;;-0.01;56.53
15694;BME280;7947;48.834;9.132;2023-02-08T09:21:38;100105.47;;;0.04;57.22
15694;BME280;7947;48.834;9.132;2023-02-08T09:24:41;100100.66;;;-0.35;54.39
15694;BME280;7947;48.834;9.132;2023-02-08T09:27:43;100103.63;;;-0.38;58.59
15694;BME280;7947;48.834;9.132;2023-02-08T09:30:46;100096.44;;;-0.28;57.16
15694;BME280;7947;48.834;9.132;2023-02-08T09:33:51;100101.38;;;-0.25;55.50
15694;BME280;7947;48.834;9.132;2023-02-08T09:36:54;100098.28;;;-0.20;55.82
15694;BME280;7947;48.834;9.132;2023-02-08T09:39:57;100093.03;;;-0.12;56.99
15694;BME280;7947;48.834;9.132;2023-02-08T09:43:06;100100.16;;;-0.05;55.35
15694;BME280;7947;48.834;9.132;2023-02-08T09:46:14;100097.06;;;0.00;54.69
15694;BME280;7947;48.834;9.132;2023-02-08T09:49:25;100092.59;;;1.07;51.56
15694;BME280;7947;48.834;9.132;2023-02-08T09:52:34;100084.59;;;3.75;47.07
15694;BME280;7947;48.834;9.132;2023-02-08T09:55:41;100078.38;;;6.47;41.75
15694;BME280;7947;48.834;9.132;2023-02-08T09:58:46;100070.47;;;7.12;37.64
15694;BME280;7947;48.834;9.132;2023-02-08T10:01:54;100063.16;;;8.04;36.02
15694;BME280;7947;48.834;9.132;2023-02-08T10:05:02;100056.41;;;8.84;34.60
15694;BME280;7947;48.834;9.132;2023-02-08T10:08:08;100058.63;;;9.61;32.52
15694;BME280;7947;48.834;9.132;2023-02-08T10:11:39;100051.69;;;10.92;31.04
15694;BME280;7947;48.834;9.132;2023-02-08T10:14:57;100058.06;;;11.90;29.70
15694;BME280;7947;48.834;9.132;2023-02-08T10:18:15;100045.69;;;11.77;27.99
15694;BME280;7947;48.834;9.132;2023-02-08T10:21:36;100037.94;;;12.72;27.62
15694;BME280;7947;48.834;9.132;2023-02-08T10:24:56;100033.88;;;12.29;28.35
15694;BME280;7947;48.834;9.132;2023-02-08T10:28:15;100028.94;;;11.98;27.90
15694;BME280;7947;48.834;9.132;2023-02-08T10:31:28;100029.03;;;12.43;27.98
15694;BME280;7947;48.834;9.132;2023-02-08T10:34:41;100028.91;;;12.21;27.60
15694;BME280;7947;48.834;9.132;2023-02-08T10:37:46;100023.09;;;12.41;27.30
15694;BME280;7947;48.834;9.132;2023-02-08T10:40:51;100026.34;;;12.43;28.01
15694;BME280;7947;48.834;9.132;2023-02-08T10:44:00;100016.00;;;11.26;29.35
15694;BME280;7947;48.834;9.132;2023-02-08T10:47:12;100018.00;;;11.19;30.70
15694;BME280;7947;48.834;9.132;2023-02-08T10:50:22;100018.47;;;11.27;29.39
15694;BME280;7947;48.834;9.132;2023-02-08T10:53:32;100025.63;;;10.80;30.60
15694;BME280;7947;48.834;9.132;2023-02-08T10:56:43;100013.25;;;11.67;29.23
15694;BME280;7947;48.834;9.132;2023-02-08T10:59:50;100011.63;;;10.90;28.72
15694;BME280;7947;48.834;9.132;2023-02-08T11:02:54;100008.66;;;9.73;31.23
15694;BME280;7947;48.834;9.132;2023-02-08T11:06:01;100011.56;;;8.04;33.51
15694;BME280;7947;48.834;9.132;2023-02-08T11:09:09;100012.22;;;7.16;34.80
15694;BME280;7947;48.834;9.132;2023-02-08T11:12:37;100000.47;;;7.30;35.02
15694;BME280;7947;48.834;9.132;2023-02-08T11:16:54;100006.66;;;6.91;36.02
15694;BME280;7947;48.834;9.132;2023-02-08T11:20:29;100006.06;;;6.83;37.72
15694;BME280;7947;48.834;9.132;2023-02-08T11:24:34;99986.97;;;6.86;35.76
15694;BME280;7947;48.834;9.132;2023-02-08T11:29:11;99970.91;;;9.74;32.10
15694;BME280;7947;48.834;9.132;2023-02-08T11:33:19;99958.19;;;11.46;30.69
15694;BME280;7947;48.834;9.132;2023-02-08T11:41:25;99938.41;;;12.93;26.96
15694;BME280;7947;48.834;9.132;2023-02-08T11:45:56;99936.69;;;13.20;26.30
15694;BME280;7947;48.834;9.132;2023-02-08T11:54:37;99931.38;;;14.07;23.93
15694;BME280;7947;48.834;9.132;2023-02-08T12:03:01;99912.81;;;14.37;23.81
15694;BME280;7947;48.834;9.132;2023-02-08T12:07:20;99910.69;;;15.07;25.53
15694;BME280;7947;48.834;9.132;2023-02-08T12:11:54;99915.22;;;14.33;24.29
15694;BME280;7947;48.834;9.132;2023-02-08T12:16:15;99901.69;;;13.20;24.95
15694;BME280;7947;48.834;9.132;2023-02-08T12:29:38;99880.81;;;12.61;26.71
15694;BME280;7947;48.834;9.132;2023-02-08T12:33:54;99877.41;;;13.37;26.88
15694;BME280;7947;48.834;9.132;2023-02-08T12:38:26;99870.75;;;14.41;24.59
15694;BME280;7947;48.834;9.132;2023-02-08T12:52:08;99846.06;;;12.93;25.13
15694;BME280;7947;48.834;9.132;2023-02-08T12:56:04;99834.53;;;13.14;24.10
15694;BME280;7947;48.834;9.132;2023-02-08T13:00:23;99830.56;;;12.83;26.64
15694;BME280;7947;48.834;9.132;2023-02-08T13:13:15;99814.19;;;12.02;28.11
15694;BME280;7947;48.834;9.132;2023-02-08T13:17:27;99811.66;;;12.61;26.57
15694;BME280;7947;48.834;9.132;2023-02-08T13:29:36;99793.16;;;13.03;26.33
15694;BME280;7947;48.834;9.132;2023-02-08T13:33:32;99797.31;;;13.32;25.68
15694;BME280;7947;48.834;9.132;2023-02-08T13:37:27;99779.56;;;12.05;29.07
15694;BME280;7947;48.834;9.132;2023-02-08T13:41:20;99784.22;;;12.10;28.80
15694;BME280;7947;48.834;9.132;2023-02-08T13:58:28;99790.19;;;9.29;32.04
15694;BME280;7947;48.834;9.132;2023-02-08T14:02:30;99788.81;;;9.27;33.53
15694;BME280;7947;48.834;9.132;2023-02-08T14:06:18;99787.72;;;9.75;31.98
15694;BME280;7947;48.834;9.132;2023-02-08T14:23:44;99804.66;;;7.69;34.65
15694;BME280;7947;48.834;9.132;2023-02-08T14:27:59;99803.56;;;7.76;35.99
15694;BME280;7947;48.834;9.132;2023-02-08T14:36:00;99799.78;;;8.46;35.35
15694;BME280;7947;48.834;9.132;2023-02-08T14:57:56;99801.81;;;5.77;40.67
15694;BME280;7947;48.834;9.132;2023-02-08T15:23:35;99815.56;;;4.73;44.07
15694;BME280;7947;48.834;9.132;2023-02-08T15:27:22;99807.44;;;4.47;44.23
15694;BME280;7947;48.834;9.132;2023-02-08T15:31:12;99799.47;;;4.19;44.78
15694;BME280;7947;48.834;9.132;2023-02-08T15:34:58;99805.97;;;4.17;45.02
15694;BME280;7947;48.834;9.132;2023-02-08T15:38:30;99798.91;;;4.03;44.91
15694;BME280;7947;48.834;9.132;2023-02-08T15:42:28;99804.19;;;3.96;45.42
15694;BME280;7947;48.834;9.132;2023-02-08T15:45:55;99804.09;;;4.11;46.12
15694;BME280;7947;48.834;9.132;2023-02-08T15:49:40;99798.75;;;4.04;45.51
15694;BME280;7947;48.834;9.132;2023-02-08T16:00:52;99803.84;;;4.06;45.17
15694;BME280;7947;48.834;9.132;2023-02-08T16:04:20;99805.78;;;3.91;46.21
15694;BME280;7947;48.834;9.132;2023-02-08T16:07:58;99808.34;;;3.84;46.38
15694;BME280;7947;48.834;9.132;2023-02-08T16:11:34;99794.56;;;3.74;45.67
15694;BME280;7947;48.834;9.132;2023-02-08T16:31:30;99801.34;;;2.84;49.14
15694;BME280;7947;48.834;9.132;2023-02-08T16:38:26;99811.59;;;3.08;49.15
15694;BME280;7947;48.834;9.132;2023-02-08T16:42:01;99812.91;;;2.98;49.28
15694;BME280;7947;48.834;9.132;2023-02-08T16:45:22;99811.59;;;3.08;49.25
15694;BME280;7947;48.834;9.132;2023-02-08T16:48:35;99814.19;;;3.02;50.00
15694;BME280;7947;48.834;9.132;2023-02-08T16:51:47;99816.50;;;2.90;49.76
15694;BME280;7947;48.834;9.132;2023-02-08T16:55:31;99816.84;;;3.02;49.86
15694;BME280;7947;48.834;9.132;2023-02-08T16:59:25;99820.13;;;3.04;49.89
15694;BME280;7947;48.834;9.132;2023-02-08T17:03:04;99816.75;;;2.95;50.83
15694;BME280;7947;48.834;9.132;2023-02-08T17:06:22;99812.81;;;2.91;50.43
15694;BME280;7947;48.834;9.132;2023-02-08T17:09:36;99820.06;;;2.83;51.52
15694;BME280;7947;48.834;9.132;2023-02-08T17:12:42;99822.97;;;2.88;50.97
15694;BME280;7947;48.834;9.132;2023-02-08T17:15:52;99827.91;;;2.76;51.61
15694;BME280;7947;48.834;9.132;2023-02-08T17:19:02;99835.59;;;2.86;51.74
15694;BME280;7947;48.834;9.132;2023-02-08T17:22:17;99838.41;;;2.84;50.69
15694;BME280;7947;48.834;9.132;2023-02-08T17:25:48;99841.59;;;2.80;51.42
15694;BME280;7947;48.834;9.132;2023-02-08T17:32:58;99841.31;;;2.60;51.30
15694;BME280;7947;48.834;9.132;2023-02-08T17:36:34;99848.13;;;2.25;52.16
15694;BME280;7947;48.834;9.132;2023-02-08T17:40:17;99853.31;;;2.19;53.96
15694;BME280;7947;48.834;9.132;2023-02-08T17:43:50;99840.94;;;2.34;54.74
15694;BME280;7947;48.834;9.132;2023-02-08T17:47:23;99854.69;;;2.29;55.06
15694;BME280;7947;48.834;9.132;2023-02-08T17:50:44;99845.94;;;1.92;54.10
15694;BME280;7947;48.834;9.132;2023-02-08T17:54:28;99849.69;;;1.74;55.17
15694;BME280;7947;48.834;9.132;2023-02-08T17:57:43;99860.03;;;1.84;55.13
15694;BME280;7947;48.834;9.132;2023-02-08T18:04:55;99854.75;;;2.07;55.15
15694;BME280;7947;48.834;9.132;2023-02-08T18:08:23;99858.59;;;1.81;54.53
15694;BME280;7947;48.834;9.132;2023-02-08T18:12:01;99851.06;;;1.93;54.89
15694;BME280;7947;48.834;9.132;2023-02-08T18:15:33;99849.16;;;2.02;55.37
15694;BME280;7947;48.834;9.132;2023-02-08T18:18:59;99855.44;;;2.01;56.28
15694;BME280;7947;48.834;9.132;2023-02-08T18:23:05;99849.91;;;1.65;53.83
15694;BME280;7947;48.834;9.132;2023-02-08T18:26:20;99852.59;;;1.57;54.38
15694;BME280;7947;48.834;9.132;2023-02-08T18:29:33;99857.88;;;1.34;54.62
15694;BME280;7947;48.834;9.132;2023-02-08T18:33:00;99854.19;;;1.43;55.10
15694;BME280;7947;48.834;9.132;2023-02-08T18:36:16;99848.00;;;1.28;55.76
15694;BME280;7947;48.834;9.132;2023-02-08T18:39:50;99853.09;;;1.30;55.71
15694;BME280;7947;48.834;9.132;2023-02-08T18:43:30;99854.06;;;1.37;54.86
15694;BME280;7947;48.834;9.132;2023-02-08T18:46:56;99854.50;;;1.48;54.45
15694;BME280;7947;48.834;9.132;2023-02-08T18:50:26;99856.28;;;1.25;55.34
15694;BME280;7947;48.834;9.132;2023-02-08T18:54:03;99852.72;;;1.41;55.39
15694;BME280;7947;48.834;9.132;2023-02-08T18:57:26;99844.22;;;1.53;55.44
15694;BME280;7947;48.834;9.132;2023-02-08T19:00:37;99846.53;;;1.56;54.08
15694;BME280;7947;48.834;9.132;2023-02-08T19:03:53;99845.81;;;1.62;54.46
15694;BME280;7947;48.834;9.132;2023-02-08T19:07:04;99845.81;;;1.62;54.51
15694;BME280;7947;48.834;9.132;2023-02-08T19:10:16;99848.28;;;1.41;54.35
15694;BME280;7947;48.834;9.132;2023-02-08T19:13:26;99850.25;;;1.39;55.00
15694;BME280;7947;48.834;9.132;2023-02-08T19:16:40;99839.56;;;1.55;55.02
15694;BME280;7947;48.834;9.132;2023-02-08T19:19:50;99841.56;;;1.53;54.48
15694;BME280;7947;48.834;9.132;2023-02-08T19:23:04;99838.25;;;1.29;55.72
15694;BME280;7947;48.834;9.132;2023-02-08T19:26:17;99843.75;;;1.19;56.46
15694;BME280;7947;48.834;9.132;2023-02-08T19:29:35;99833.78;;;0.99;57.15
15694;BME280;7947;48.834;9.132;2023-02-08T19:32:45;99827.56;;;0.83;58.30
15694;BME280;7947;48.834;9.132;2023-02-08T19:36:04;99834.69;;;0.83;57.60
15694;BME280;7947;48.834;9.132;2023-02-08T19:39:18;99835.66;;;0.82;57.70
15694;BME280;7947;48.834;9.132;2023-02-08T19:42:39;99844.72;;;0.87;57.63
15694;BME280;7947;48.834;9.132;2023-02-08T19:45:50;99849.19;;;0.87;57.80
15694;BME280;7947;48.834;9.132;2023-02-08T19:49:06;99841.56;;;0.92;58.18
15694;BME280;7947;48.834;9.132;2023-02-08T19:52:15;99839.53;;;1.02;57.88
15694;BME280;7947;48.834;9.132;2023-02-08T19:55:31;99836.72;;;1.04;57.85
15694;BME280;7947;48.834;9.132;2023-02-08T19:58:49;99841.56;;;0.92;57.31
15694;BME280;7947;48.834;9.132;2023-02-08T20:02:09;99843.81;;;1.03;58.45
15694;BME280;7947;48.834;9.132;2023-02-08T20:05:25;99841.38;;;0.93;58.39
15694;BME280;7947;48.834;9.132;2023-02-08T20:08:32;99840.56;;;0.93;59.02
15694;BME280;7947;48.834;9.132;2023-02-08T20:12:02;99838.75;;;0.93;59.51
15694;BME280;7947;48.834;9.132;2023-02-08T20:15:29;99837.53;;;0.73;58.84
15694;BME280;7947;48.834;9.132;2023-02-08T20:22:14;99834.25;;;0.63;58.86
15694;BME280;7947;48.834;9.132;2023-02-08T20:25:44;99829.19;;;0.46;58.85
15694;BME280;7947;48.834;9.132;2023-02-08T20:29:01;99827.41;;;0.22;59.46
15694;BME280;7947;48.834;9.132;2023-02-08T20:32:26;99818.69;;;0.06;59.92
15694;BME280;7947;48.834;9.132;2023-02-08T20:35:46;99819.53;;;-0.18;61.00
15694;BME280;7947;48.834;9.132;2023-02-08T20:39:19;99815.41;;;-0.13;61.39
15694;BME280;7947;48.834;9.132;2023-02-08T20:42:27;99814.56;;;-0.05;61.77
15694;BME280;7947;48.834;9.132;2023-02-08T20:45:39;99814.41;;;0.05;60.46
15694;BME280;7947;48.834;9.132;2023-02-08T20:48:45;99818.69;;;0.06;60.55
15694;BME280;7947;48.834;9.132;2023-02-08T20:51:53;99821.16;;;0.15;60.67
15694;BME280;7947;48.834;9.132;2023-02-08T20:55:08;99821.81;;;0.17;60.45
15694;BME280;7947;48.834;9.132;2023-02-08T20:58:17;99821.75;;;0.33;60.23